Amherst, New Hampshire
Current Conditions -  °F | °C
As of 10:27 AM on Thursday 23 Oct 2014 (Local Time) from KASH Reporting Station
Moderate Rain Moderate Rain  
Wind Chill:   Ceiling: 2400
Heat Index:   Visibility: 1.7mi
Dew Point:   Wind: 9mph
Humidity: 100%   Direction: 330°NNW
Pressure: 29.74"   Gusts: NA
Location:  42.86°N, 71.63°W
Report Text: KASH 231427Z 33008KT 1 3/4SM RA BR FEW010 SCT018 OVC024 09/09 A2974 RMK AO2 P0000 $
Loading
Personal Weather Stations






























Interactive Weather Map New forecast layout! Learn more

10-Day Weather Forecast

Advertisements
Track Severe Weather on mobile